createdAt,value
2018-06-12T00:05:03.030Z,5.80
2018-06-12T00:11:08.755Z,5.90
2018-06-12T00:17:14.579Z,5.90
2018-06-12T00:23:20.439Z,6.23
2018-06-12T00:29:26.221Z,6.40
2018-06-12T00:35:31.961Z,6.97
2018-06-12T00:41:37.928Z,6.70
2018-06-12T00:47:43.601Z,6.30
2018-06-12T00:53:49.854Z,7.33
2018-06-12T00:59:56.319Z,6.93
2018-06-12T01:06:02.052Z,7.63
2018-06-12T01:12:07.921Z,7.77
2018-06-12T01:18:13.544Z,9.43
2018-06-12T01:24:19.209Z,8.90
2018-06-12T01:30:25.446Z,8.97
2018-06-12T01:36:31.128Z,10.70
2018-06-12T01:42:36.776Z,11.23
2018-06-12T01:48:42.413Z,10.00
2018-06-12T01:54:48.048Z,11.83
2018-06-12T02:00:54.249Z,10.73
2018-06-12T02:06:59.911Z,12.27
2018-06-12T02:19:44.731Z,10.97
2018-06-12T02:25:50.461Z,11.30
2018-06-12T02:31:56.261Z,12.43
2018-06-12T02:38:01.944Z,11.33
2018-06-12T02:44:07.600Z,11.17
2018-06-12T02:50:13.233Z,8.57
2018-06-12T02:56:18.935Z,10.80
2018-06-12T03:02:25.681Z,11.60
2018-06-12T03:08:31.516Z,11.20
2018-06-12T03:14:37.320Z,10.13
2018-06-12T03:20:46.747Z,9.73
2018-06-12T03:26:52.789Z,9.10
2018-06-12T03:32:58.518Z,7.80
2018-06-12T03:39:06.397Z,8.70
2018-06-12T03:45:12.003Z,8.40
2018-06-12T03:51:17.779Z,8.93
2018-06-12T03:57:24.482Z,8.63
2018-06-12T04:03:30.272Z,7.60
2018-06-12T04:09:35.949Z,9.10
2018-06-12T04:15:41.783Z,8.00
2018-06-12T04:21:47.969Z,8.10
2018-06-12T04:27:53.933Z,8.30
2018-06-12T04:33:59.683Z,9.50
2018-06-12T04:40:05.446Z,8.70
2018-06-12T04:46:11.097Z,8.53
2018-06-12T04:52:16.855Z,9.07
2018-06-12T04:58:23.304Z,8.63
2018-06-12T05:04:28.947Z,8.70
2018-06-12T05:10:34.593Z,8.23
2018-06-12T05:16:40.311Z,7.97
2018-06-12T05:22:45.945Z,8.50
2018-06-12T05:28:53.089Z,7.50
2018-06-12T05:34:58.726Z,7.87
2018-06-12T05:41:04.392Z,6.83
2018-06-12T05:47:10.028Z,7.57
2018-06-12T05:53:15.778Z,5.23
2018-06-12T05:59:21.843Z,4.67
2018-06-12T06:05:27.499Z,4.80
2018-06-12T06:11:33.228Z,5.10
2018-06-12T06:17:39.093Z,4.17
2018-06-12T06:23:44.891Z,4.60
2018-06-12T06:29:50.650Z,4.00
2018-06-12T06:35:56.685Z,4.63
2018-06-12T06:42:02.415Z,3.80
2018-06-12T06:48:08.196Z,3.70
2018-06-12T06:54:14.005Z,4.30
2018-06-12T07:00:19.779Z,3.10
2018-06-12T07:06:26.044Z,3.03
2018-06-12T07:12:31.653Z,3.23
2018-06-12T07:18:37.364Z,3.17
2018-06-12T07:24:42.991Z,3.50
2018-06-12T07:30:48.645Z,3.50
2018-06-12T07:36:54.768Z,3.60
2018-06-12T07:43:00.372Z,3.20
2018-06-12T07:49:06.159Z,3.33
2018-06-12T07:55:11.866Z,3.50
2018-06-12T08:01:17.591Z,3.03
2018-06-12T08:07:23.844Z,2.80
2018-06-12T08:13:29.613Z,2.90
2018-06-12T08:19:35.309Z,2.80
2018-06-12T08:25:40.984Z,2.50
2018-06-12T08:31:46.660Z,2.80
2018-06-12T08:37:52.822Z,2.67
2018-06-12T08:43:58.708Z,3.50
2018-06-12T08:50:04.485Z,3.77
2018-06-12T08:56:10.117Z,2.77
2018-06-12T09:02:15.770Z,2.80
2018-06-12T09:08:21.400Z,2.70
2018-06-12T09:14:27.416Z,2.87
2018-06-12T09:20:33.009Z,3.10
2018-06-12T09:26:38.629Z,2.93
2018-06-12T09:32:44.259Z,3.13
2018-06-12T09:38:50.015Z,2.57
2018-06-12T09:44:55.835Z,2.60
2018-06-12T09:51:01.451Z,2.33
2018-06-12T09:57:07.332Z,2.60
2018-06-12T10:03:12.940Z,2.30
2018-06-12T10:09:18.898Z,2.40
2018-06-12T10:15:24.725Z,2.07
2018-06-12T10:21:30.382Z,1.53
2018-06-12T10:27:36.111Z,1.83
2018-06-12T10:33:41.870Z,2.57
2018-06-12T10:39:47.578Z,2.80
2018-06-12T10:45:54.412Z,2.00
2018-06-12T10:52:00.035Z,1.97
2018-06-12T10:58:05.660Z,2.20
2018-06-12T11:04:11.254Z,3.30
2018-06-12T11:10:17.025Z,2.33
2018-06-12T11:16:23.973Z,2.27
2018-06-12T11:22:29.668Z,2.40
2018-06-12T11:28:35.320Z,2.47
2018-06-12T11:34:41.265Z,1.90
2018-06-12T11:40:46.856Z,2.30
2018-06-12T11:46:53.108Z,2.30
2018-06-12T11:52:58.811Z,2.70
2018-06-12T11:59:04.630Z,2.77
2018-06-12T12:05:10.456Z,3.17
2018-06-12T12:11:16.235Z,3.07
2018-06-12T12:17:22.467Z,3.50
2018-06-12T12:23:28.389Z,3.23
2018-06-12T12:29:33.992Z,3.37
2018-06-12T12:35:39.604Z,3.43
2018-06-12T12:41:45.289Z,3.00
2018-06-12T12:47:51.129Z,3.73
2018-06-12T12:53:56.914Z,3.27
2018-06-12T13:00:02.536Z,3.53
2018-06-12T13:06:08.319Z,3.40
2018-06-12T13:12:13.969Z,3.97
2018-06-12T13:18:19.691Z,4.00
2018-06-12T13:24:25.860Z,3.97
2018-06-12T13:30:31.596Z,4.00
2018-06-12T13:36:37.377Z,3.60
2018-06-12T13:42:43.004Z,3.70
2018-06-12T13:48:48.689Z,3.87
2018-06-12T13:54:54.977Z,3.80
2018-06-12T14:01:01.466Z,3.93
2018-06-12T14:07:07.089Z,3.93
2018-06-12T14:13:12.715Z,4.10
2018-06-12T14:19:18.353Z,3.63
2018-06-12T14:25:24.989Z,3.77
2018-06-12T14:31:31.127Z,3.77
2018-06-12T14:37:36.878Z,3.73
2018-06-12T14:43:42.625Z,3.87
2018-06-12T14:49:48.589Z,3.47
2018-06-12T14:55:55.667Z,4.13
2018-06-12T15:02:01.349Z,4.60
2018-06-12T15:08:07.051Z,3.53
2018-06-12T15:14:12.858Z,4.77
2018-06-12T15:20:18.568Z,3.93
2018-06-12T15:26:25.319Z,3.10
2018-06-12T15:32:30.948Z,3.10
2018-06-12T15:38:36.840Z,3.57
2018-06-12T15:44:42.569Z,3.40
2018-06-12T15:50:48.329Z,3.77
2018-06-12T15:56:54.457Z,2.80
2018-06-12T16:03:00.175Z,2.90
2018-06-12T16:09:12.494Z,3.63
2018-06-12T16:15:18.129Z,3.50
2018-06-12T16:21:24.700Z,3.10
2018-06-12T16:27:30.452Z,3.80
2018-06-12T16:33:36.147Z,3.20
2018-06-12T16:39:41.765Z,3.37
2018-06-12T16:45:47.341Z,3.40
2018-06-12T16:51:53.860Z,3.50
2018-06-12T16:57:59.522Z,3.33
2018-06-12T17:04:05.214Z,3.40
2018-06-12T17:10:11.034Z,3.83
2018-06-12T17:16:16.698Z,3.03
2018-06-12T17:22:23.013Z,3.03
2018-06-12T17:28:28.790Z,2.77
2018-06-12T17:34:34.810Z,2.90
2018-06-12T17:40:40.463Z,3.10
2018-06-12T17:46:46.162Z,3.27
2018-06-12T17:52:52.393Z,2.57
2018-06-12T17:58:58.096Z,3.47
2018-06-12T18:05:03.800Z,3.23
2018-06-12T18:11:10.041Z,3.10
2018-06-12T18:17:15.817Z,3.67
2018-06-12T18:23:21.846Z,3.00
2018-06-12T18:29:27.498Z,3.10
2018-06-12T18:35:33.276Z,3.47
2018-06-12T18:41:39.005Z,2.93
2018-06-12T18:47:45.065Z,3.10
2018-06-12T18:53:50.732Z,3.33
2018-06-12T18:59:56.577Z,3.13
2018-06-12T19:06:02.396Z,3.13
2018-06-12T19:12:08.090Z,4.07
2018-06-12T19:18:13.916Z,3.80
2018-06-12T19:24:20.141Z,3.30
2018-06-12T19:30:26.102Z,3.77
2018-06-12T19:36:31.723Z,3.27
2018-06-12T19:42:37.441Z,2.97
2018-06-12T19:48:43.077Z,3.80
2018-06-12T19:54:49.194Z,3.83
2018-06-12T20:00:55.797Z,3.57
2018-06-12T20:07:01.458Z,3.20
2018-06-12T20:13:07.296Z,3.90
2018-06-12T20:19:13.022Z,3.90
2018-06-12T20:25:19.872Z,3.43
2018-06-12T20:31:26.372Z,4.03
2018-06-12T20:37:32.093Z,3.90
2018-06-12T20:43:37.845Z,4.30
2018-06-12T20:49:43.640Z,3.53
2018-06-12T20:55:49.427Z,4.07
2018-06-12T21:01:56.335Z,3.80
2018-06-12T21:08:02.114Z,3.80
2018-06-12T21:14:07.803Z,4.50
2018-06-12T21:20:13.563Z,4.10
2018-06-12T21:26:20.089Z,4.47
2018-06-12T21:32:25.785Z,3.90
2018-06-12T21:38:31.452Z,4.43
2018-06-12T21:44:37.233Z,4.50
2018-06-12T21:50:42.872Z,5.00
2018-06-12T21:56:48.551Z,5.43
2018-06-12T22:02:54.680Z,4.90
2018-06-12T22:09:00.345Z,4.97
2018-06-12T22:15:06.038Z,5.23
2018-06-12T22:21:12.128Z,4.77
2018-06-12T22:27:17.802Z,5.17
2018-06-12T22:33:23.736Z,4.60
2018-06-12T22:39:29.408Z,4.13
2018-06-12T22:45:35.103Z,5.70
2018-06-12T22:51:40.776Z,3.83
2018-06-12T22:57:46.526Z,4.87
2018-06-12T23:03:54.215Z,5.57
2018-06-12T23:09:59.916Z,4.43
2018-06-12T23:16:05.616Z,4.40
2018-06-12T23:22:11.548Z,4.13
2018-06-12T23:28:17.236Z,4.17
2018-06-12T23:34:25.210Z,4.80
2018-06-12T23:40:31.015Z,4.30
2018-06-12T23:46:36.840Z,4.30
2018-06-12T23:52:42.866Z,4.20
2018-06-12T23:58:48.808Z,4.20
